sensor_id;sensor_type;location;lat;lon;timestamp;pressure;altitude;pressure_sealevel;temperature;humidity
10806;BME280;5455;53.224;6.000;2023-03-04T00:02:26;102643.69;;;5.94;100.00
10806;BME280;5455;53.224;6.000;2023-03-04T00:04:52;102648.34;;;5.94;100.00
10806;BME280;5455;53.224;6.000;2023-03-04T00:07:19;102654.06;;;5.92;100.00
10806;BME280;5455;53.224;6.000;2023-03-04T00:09:46;102656.00;;;5.92;100.00
10806;BME280;5455;53.224;6.000;2023-03-04T00:12:13;102643.69;;;5.94;100.00
10806;BME280;5455;53.224;6.000;2023-03-04T00:14:40;102650.50;;;5.97;100.00
10806;BME280;5455;53.224;6.000;2023-03-04T00:17:07;102653.75;;;5.99;100.00
10806;BME280;5455;53.224;6.000;2023-03-04T00:19:35;102643.09;;;5.97;100.00
10806;BME280;5455;53.224;6.000;2023-03-04T00:22:03;102644.72;;;5.98;100.00
10806;BME280;5455;53.224;6.000;2023-03-04T00:24:31;102641.97;;;5.98;100.00
10806;BME280;5455;53.224;6.000;2023-03-04T00:26:58;102638.97;;;6.00;100.00
10806;BME280;5455;53.224;6.000;2023-03-04T00:29:25;102640.91;;;5.99;100.00
10806;BME280;5455;53.224;6.000;2023-03-04T00:31:52;102631.84;;;5.99;100.00
10806;BME280;5455;53.224;6.000;2023-03-04T00:34:19;102640.63;;;5.96;100.00
10806;BME280;5455;53.224;6.000;2023-03-04T00:36:46;102630.50;;;5.96;100.00
10806;BME280;5455;53.224;6.000;2023-03-04T00:39:13;102631.03;;;5.98;100.00
10806;BME280;5455;53.224;6.000;2023-03-04T00:41:41;102635.41;;;5.99;100.00
10806;BME280;5455;53.224;6.000;2023-03-04T00:44:08;102621.53;;;5.91;100.00
10806;BME280;5455;53.224;6.000;2023-03-04T00:46:35;102634.34;;;5.95;100.00
10806;BME280;5455;53.224;6.000;2023-03-04T00:49:02;102626.44;;;5.94;100.00
10806;BME280;5455;53.224;6.000;2023-03-04T00:51:29;102633.00;;;5.93;100.00
10806;BME280;5455;53.224;6.000;2023-03-04T00:53:56;102627.00;;;5.91;100.00
10806;BME280;5455;53.224;6.000;2023-03-04T00:56:27;102615.78;;;5.87;100.00
10806;BME280;5455;53.224;6.000;2023-03-04T00:58:54;102622.63;;;5.85;100.00
10806;BME280;5455;53.224;6.000;2023-03-04T01:01:21;102617.16;;;5.85;100.00
10806;BME280;5455;53.224;6.000;2023-03-04T01:03:48;102612.75;;;5.84;100.00
10806;BME280;5455;53.224;6.000;2023-03-04T01:06:15;102611.94;;;5.83;100.00
10806;BME280;5455;53.224;6.000;2023-03-04T01:08:43;102608.13;;;5.84;100.00
10806;BME280;5455;53.224;6.000;2023-03-04T01:11:10;102612.53;;;5.85;100.00
10806;BME280;5455;53.224;6.000;2023-03-04T01:13:37;102620.97;;;5.89;100.00
10806;BME280;5455;53.224;6.000;2023-03-04T01:16:06;102619.34;;;5.88;100.00
10806;BME280;5455;53.224;6.000;2023-03-04T01:18:33;102610.59;;;5.86;100.00
10806;BME280;5455;53.224;6.000;2023-03-04T01:21:01;102610.84;;;5.84;100.00
10806;BME280;5455;53.224;6.000;2023-03-04T01:23:28;102607.84;;;5.86;100.00
10806;BME280;5455;53.224;6.000;2023-03-04T01:25:55;102612.22;;;5.87;100.00
10806;BME280;5455;53.224;6.000;2023-03-04T01:28:23;102605.94;;;5.86;100.00
10806;BME280;5455;53.224;6.000;2023-03-04T01:30:50;102599.38;;;5.87;100.00
10806;BME280;5455;53.224;6.000;2023-03-04T01:33:17;102599.63;;;5.86;100.00
10806;BME280;5455;53.224;6.000;2023-03-04T01:35:44;102602.38;;;5.86;100.00
10806;BME280;5455;53.224;6.000;2023-03-04T01:38:11;102601.81;;;5.84;100.00
10806;BME280;5455;53.224;6.000;2023-03-04T01:40:39;102594.69;;;5.83;100.00
10806;BME280;5455;53.224;6.000;2023-03-04T01:43:06;102591.44;;;5.81;100.00
10806;BME280;5455;53.224;6.000;2023-03-04T01:45:34;102584.34;;;5.80;100.00
10806;BME280;5455;53.224;6.000;2023-03-04T01:48:02;102587.66;;;5.77;100.00
10806;BME280;5455;53.224;6.000;2023-03-04T01:50:31;102583.78;;;5.78;100.00
10806;BME280;5455;53.224;6.000;2023-03-04T01:53:00;102570.41;;;5.76;100.00
10806;BME280;5455;53.224;6.000;2023-03-04T01:55:29;102577.28;;;5.74;100.00
10806;BME280;5455;53.224;6.000;2023-03-04T01:57:56;102570.97;;;5.73;100.00
10806;BME280;5455;53.224;6.000;2023-03-04T02:00:29;102567.94;;;5.75;100.00
10806;BME280;5455;53.224;6.000;2023-03-04T02:03:02;102564.94;;;5.76;100.00
10806;BME280;5455;53.224;6.000;2023-03-04T02:05:30;102559.97;;;5.78;100.00
10806;BME280;5455;53.224;6.000;2023-03-04T02:07:58;102557.50;;;5.82;100.00
10806;BME280;5455;53.224;6.000;2023-03-04T02:10:26;102561.84;;;5.83;100.00
10806;BME280;5455;53.224;6.000;2023-03-04T02:12:53;102561.59;;;5.84;100.00
10806;BME280;5455;53.224;6.000;2023-03-04T02:15:22;102556.91;;;5.90;100.00
10806;BME280;5455;53.224;6.000;2023-03-04T02:17:49;102562.63;;;5.93;100.00
10806;BME280;5455;53.224;6.000;2023-03-04T02:23:26;102551.97;;;5.92;100.00
10806;BME280;5455;53.224;6.000;2023-03-04T02:28:34;102551.97;;;5.92;100.00
10806;BME280;5455;53.224;6.000;2023-03-04T02:31:01;102544.31;;;5.89;100.00
10806;BME280;5455;53.224;6.000;2023-03-04T02:33:28;102538.06;;;5.88;100.00
10806;BME280;5455;53.224;6.000;2023-03-04T02:35:57;102542.41;;;5.89;100.00
10806;BME280;5455;53.224;6.000;2023-03-04T02:38:25;102535.53;;;5.92;100.00
10806;BME280;5455;53.224;6.000;2023-03-04T02:40:53;102530.06;;;5.92;100.00
10806;BME280;5455;53.224;6.000;2023-03-04T02:43:21;102533.09;;;5.90;100.00
10806;BME280;5455;53.224;6.000;2023-03-04T02:45:49;102542.94;;;5.91;100.00
10806;BME280;5455;53.224;6.000;2023-03-04T02:48:19;102531.44;;;5.89;100.00
10806;BME280;5455;53.224;6.000;2023-03-04T02:50:49;102525.47;;;5.82;100.00
10806;BME280;5455;53.224;6.000;2023-03-04T02:53:17;102531.47;;;5.84;100.00
10806;BME280;5455;53.224;6.000;2023-03-04T02:55:44;102518.88;;;5.83;100.00
10806;BME280;5455;53.224;6.000;2023-03-04T02:58:12;102519.19;;;5.82;100.00
10806;BME280;5455;53.224;6.000;2023-03-04T03:00:40;102512.56;;;5.83;100.00
10806;BME280;5455;53.224;6.000;2023-03-04T03:03:08;102513.41;;;5.83;100.00
10806;BME280;5455;53.224;6.000;2023-03-04T03:05:36;102511.25;;;5.85;100.00
10806;BME280;5455;53.224;6.000;2023-03-04T03:08:04;102515.31;;;5.88;100.00
10806;BME280;5455;53.224;6.000;2023-03-04T03:10:32;102514.50;;;5.87;100.00
10806;BME280;5455;53.224;6.000;2023-03-04T03:13:00;102514.50;;;5.87;100.00
10806;BME280;5455;53.224;6.000;2023-03-04T03:15:28;102506.84;;;5.84;100.00
10806;BME280;5455;53.224;6.000;2023-03-04T03:17:56;102502.22;;;5.80;100.00
10806;BME280;5455;53.224;6.000;2023-03-04T03:20:23;102497.56;;;5.80;100.00
10806;BME280;5455;53.224;6.000;2023-03-04T03:22:50;102494.53;;;5.82;100.00
10806;BME280;5455;53.224;6.000;2023-03-04T03:25:17;102488.75;;;5.83;100.00
10806;BME280;5455;53.224;6.000;2023-03-04T03:27:44;102492.31;;;5.84;100.00
10806;BME280;5455;53.224;6.000;2023-03-04T03:30:14;102487.41;;;5.86;100.00
10806;BME280;5455;53.224;6.000;2023-03-04T03:32:41;102485.75;;;5.85;100.00
10806;BME280;5455;53.224;6.000;2023-03-04T03:35:09;102490.41;;;5.84;100.00
10806;BME280;5455;53.224;6.000;2023-03-04T03:37:36;102495.06;;;5.84;100.00
10806;BME280;5455;53.224;6.000;2023-03-04T03:40:04;102477.81;;;5.83;100.00
10806;BME280;5455;53.224;6.000;2023-03-04T03:42:31;102482.19;;;5.84;100.00
10806;BME280;5455;53.224;6.000;2023-03-04T03:44:58;102477.81;;;5.83;100.00
10806;BME280;5455;53.224;6.000;2023-03-04T03:47:25;102478.41;;;5.85;100.00
10806;BME280;5455;53.224;6.000;2023-03-04T03:49:52;102477.28;;;5.86;100.00
10806;BME280;5455;53.224;6.000;2023-03-04T03:52:19;102469.88;;;5.87;100.00
10806;BME280;5455;53.224;6.000;2023-03-04T03:54:46;102487.66;;;5.89;100.00
10806;BME280;5455;53.224;6.000;2023-03-04T03:57:12;102482.19;;;5.89;100.00
10806;BME280;5455;53.224;6.000;2023-03-04T03:59:40;102480.78;;;5.92;100.00
10806;BME280;5455;53.224;6.000;2023-03-04T04:02:07;102476.69;;;5.94;100.00
10806;BME280;5455;53.224;6.000;2023-03-04T04:04:34;102481.03;;;5.95;100.00
10806;BME280;5455;53.224;6.000;2023-03-04T04:07:01;102472.00;;;5.95;100.00
10806;BME280;5455;53.224;6.000;2023-03-04T04:09:28;102482.38;;;5.98;100.00
10806;BME280;5455;53.224;6.000;2023-03-04T04:11:55;102474.69;;;6.00;100.00
10806;BME280;5455;53.224;6.000;2023-03-04T04:14:22;102473.31;;;6.02;100.00
10806;BME280;5455;53.224;6.000;2023-03-04T04:16:49;102477.91;;;6.07;100.00
10806;BME280;5455;53.224;6.000;2023-03-04T04:19:18;102470.22;;;6.09;100.00
10806;BME280;5455;53.224;6.000;2023-03-04T04:21:46;102465.84;;;6.08;100.00
10806;BME280;5455;53.224;6.000;2023-03-04T04:24:14;102468.59;;;6.08;100.00
10806;BME280;5455;53.224;6.000;2023-03-04T04:26:41;102464.75;;;6.09;100.00
10806;BME280;5455;53.224;6.000;2023-03-04T04:29:12;102468.91;;;6.06;100.00
10806;BME280;5455;53.224;6.000;2023-03-04T04:31:39;102463.69;;;6.05;100.00
10806;BME280;5455;53.224;6.000;2023-03-04T04:34:07;102464.00;;;6.03;100.00
10806;BME280;5455;53.224;6.000;2023-03-04T04:36:34;102459.63;;;6.02;100.00
10806;BME280;5455;53.224;6.000;2023-03-04T04:39:02;102475.72;;;6.09;100.00
10806;BME280;5455;53.224;6.000;2023-03-04T04:41:34;102471.06;;;6.09;100.00
10806;BME280;5455;53.224;6.000;2023-03-04T04:44:02;102484.50;;;6.06;100.00
10806;BME280;5455;53.224;6.000;2023-03-04T04:46:29;102484.00;;;5.99;100.00
10806;BME280;5455;53.224;6.000;2023-03-04T04:48:56;102481.94;;;5.86;100.00
10806;BME280;5455;53.224;6.000;2023-03-04T04:51:23;102476.59;;;5.71;100.00
10806;BME280;5455;53.224;6.000;2023-03-04T04:53:50;102469.84;;;5.58;100.00
10806;BME280;5455;53.224;6.000;2023-03-04T04:56:21;102469.09;;;5.47;100.00
10806;BME280;5455;53.224;6.000;2023-03-04T04:58:48;102469.38;;;5.46;100.00
10806;BME280;5455;53.224;6.000;2023-03-04T05:01:15;102472.94;;;5.46;100.00
10806;BME280;5455;53.224;6.000;2023-03-04T05:03:42;102480.84;;;5.48;100.00
10806;BME280;5455;53.224;6.000;2023-03-04T05:06:10;102468.25;;;5.52;100.00
10806;BME280;5455;53.224;6.000;2023-03-04T05:08:38;102459.47;;;5.50;100.00
10806;BME280;5455;53.224;6.000;2023-03-04T05:11:06;102455.38;;;5.52;100.00
10806;BME280;5455;53.224;6.000;2023-03-04T05:13:34;102455.66;;;5.51;100.00
10806;BME280;5455;53.224;6.000;2023-03-04T05:16:01;102460.84;;;5.52;100.00
10806;BME280;5455;53.224;6.000;2023-03-04T05:18:28;102454.56;;;5.52;100.00
10806;BME280;5455;53.224;6.000;2023-03-04T05:20:58;102455.09;;;5.54;100.00
10806;BME280;5455;53.224;6.000;2023-03-04T05:23:27;102453.69;;;5.56;100.00
10806;BME280;5455;53.224;6.000;2023-03-04T05:25:54;102467.63;;;5.60;100.00
10806;BME280;5455;53.224;6.000;2023-03-04T05:28:22;102454.47;;;5.62;100.00
10806;BME280;5455;53.224;6.000;2023-03-04T05:30:49;102449.00;;;5.62;100.00
10806;BME280;5455;53.224;6.000;2023-03-04T05:33:16;102459.38;;;5.65;100.00
10806;BME280;5455;53.224;6.000;2023-03-04T05:35:44;102456.16;;;5.58;100.00
10806;BME280;5455;53.224;6.000;2023-03-04T05:38:14;102447.41;;;5.56;100.00
10806;BME280;5455;53.224;6.000;2023-03-04T05:40:42;102452.09;;;5.55;100.00
10806;BME280;5455;53.224;6.000;2023-03-04T05:43:09;102446.59;;;5.55;100.00
10806;BME280;5455;53.224;6.000;2023-03-04T05:45:37;102450.13;;;5.61;100.00
10806;BME280;5455;53.224;6.000;2023-03-04T05:48:04;102457.44;;;5.66;100.00
10806;BME280;5455;53.224;6.000;2023-03-04T05:50:32;102456.34;;;5.67;100.00
10806;BME280;5455;53.224;6.000;2023-03-04T05:52:59;102458.00;;;5.68;100.00
10806;BME280;5455;53.224;6.000;2023-03-04T05:55:26;102462.91;;;5.71;100.00
10806;BME280;5455;53.224;6.000;2023-03-04T05:57:55;102471.69;;;5.68;100.00
10806;BME280;5455;53.224;6.000;2023-03-04T06:00:23;102464.63;;;5.62;100.00
10806;BME280;5455;53.224;6.000;2023-03-04T06:02:50;102458.91;;;5.53;100.00
10806;BME280;5455;53.224;6.000;2023-03-04T06:05:18;102456.78;;;5.45;100.00
10806;BME280;5455;53.224;6.000;2023-03-04T06:07:46;102456.84;;;5.40;100.00
10806;BME280;5455;53.224;6.000;2023-03-04T06:10:15;102456.84;;;5.35;100.00
10806;BME280;5455;53.224;6.000;2023-03-04T06:12:42;102450.34;;;5.26;100.00
10806;BME280;5455;53.224;6.000;2023-03-04T06:15:10;102452.31;;;5.20;100.00
10806;BME280;5455;53.224;6.000;2023-03-04T06:17:39;102451.22;;;5.21;100.00
10806;BME280;5455;53.224;6.000;2023-03-04T06:20:09;102457.22;;;5.23;100.00
10806;BME280;5455;53.224;6.000;2023-03-04T06:22:36;102454.22;;;5.25;100.00
10806;BME280;5455;53.224;6.000;2023-03-04T06:25:03;102456.66;;;5.26;100.00
10806;BME280;5455;53.224;6.000;2023-03-04T06:27:31;102468.38;;;5.32;100.00
10806;BME280;5455;53.224;6.000;2023-03-04T06:29:58;102468.09;;;5.33;100.00
10806;BME280;5455;53.224;6.000;2023-03-04T06:32:25;102466.72;;;5.36;100.00
10806;BME280;5455;53.224;6.000;2023-03-04T06:34:52;102462.88;;;5.37;100.00
10806;BME280;5455;53.224;6.000;2023-03-04T06:37:20;102463.72;;;5.37;100.00
10806;BME280;5455;53.224;6.000;2023-03-04T06:39:47;102464.22;;;5.39;100.00
10806;BME280;5455;53.224;6.000;2023-03-04T06:42:14;102458.47;;;5.41;100.00
10806;BME280;5455;53.224;6.000;2023-03-04T06:44:41;102455.44;;;5.42;100.00
10806;BME280;5455;53.224;6.000;2023-03-04T06:47:08;102455.44;;;5.42;100.00
10806;BME280;5455;53.224;6.000;2023-03-04T06:49:35;102458.97;;;5.48;100.00
10806;BME280;5455;53.224;6.000;2023-03-04T06:52:02;102459.72;;;5.53;100.00
10806;BME280;5455;53.224;6.000;2023-03-04T06:54:29;102460.75;;;5.63;100.00
10806;BME280;5455;53.224;6.000;2023-03-04T06:56:57;102461.56;;;5.63;100.00
10806;BME280;5455;53.224;6.000;2023-03-04T06:59:24;102468.13;;;5.67;100.00
10806;BME280;5455;53.224;6.000;2023-03-04T07:01:51;102461.25;;;5.70;100.00
10806;BME280;5455;53.224;6.000;2023-03-04T07:04:18;102473.28;;;5.74;100.00
10806;BME280;5455;53.224;6.000;2023-03-04T07:06:45;102472.13;;;5.80;100.00
10806;BME280;5455;53.224;6.000;2023-03-04T07:09:12;102471.31;;;5.79;100.00
10806;BME280;5455;53.224;6.000;2023-03-04T07:11:39;102477.59;;;5.80;100.00
10806;BME280;5455;53.224;6.000;2023-03-04T07:14:06;102479.28;;;5.76;100.00
10806;BME280;5455;53.224;6.000;2023-03-04T07:16:33;102486.91;;;5.79;100.00
10806;BME280;5455;53.224;6.000;2023-03-04T07:19:00;102474.28;;;5.88;100.00
10806;BME280;5455;53.224;6.000;2023-03-04T07:21:27;102487.38;;;5.91;100.00
10806;BME280;5455;53.224;6.000;2023-03-04T07:23:54;102479.09;;;5.96;100.00
10806;BME280;5455;53.224;6.000;2023-03-04T07:26:22;102476.03;;;6.02;100.00
10806;BME280;5455;53.224;6.000;2023-03-04T07:28:48;102483.34;;;6.12;100.00
10806;BME280;5455;53.224;6.000;2023-03-04T07:31:32;102491.22;;;6.19;100.00
10806;BME280;5455;53.224;6.000;2023-03-04T07:34:03;102496.41;;;6.20;100.00
10806;BME280;5455;53.224;6.000;2023-03-04T07:36:31;102503.53;;;6.21;100.00
10806;BME280;5455;53.224;6.000;2023-03-04T07:38:59;102498.56;;;6.23;100.00
10806;BME280;5455;53.224;6.000;2023-03-04T07:41:27;102496.88;;;6.27;100.00
10806;BME280;5455;53.224;6.000;2023-03-04T07:43:57;102506.44;;;6.30;100.00
10806;BME280;5455;53.224;6.000;2023-03-04T07:46:25;102487.66;;;6.18;100.00
10806;BME280;5455;53.224;6.000;2023-03-04T07:48:54;102508.84;;;6.36;100.00
10806;BME280;5455;53.224;6.000;2023-03-04T07:51:23;102503.31;;;6.41;100.00
10806;BME280;5455;53.224;6.000;2023-03-04T07:53:53;102503.25;;;6.46;100.00
10806;BME280;5455;53.224;6.000;2023-03-04T07:56:22;102497.41;;;6.53;100.00
10806;BME280;5455;53.224;6.000;2023-03-04T07:58:50;102501.16;;;6.62;100.00
10806;BME280;5455;53.224;6.000;2023-03-04T08:01:25;102506.41;;;6.58;100.00
10806;BME280;5455;53.224;6.000;2023-03-04T08:03:52;102511.94;;;6.53;100.00
10806;BME280;5455;53.224;6.000;2023-03-04T08:06:20;102505.13;;;6.51;100.00
10806;BME280;5455;53.224;6.000;2023-03-04T08:08:48;102509.78;;;6.50;100.00
10806;BME280;5455;53.224;6.000;2023-03-04T08:11:18;102515.53;;;6.49;100.00
10806;BME280;5455;53.224;6.000;2023-03-04T08:13:45;102530.88;;;6.50;100.00
10806;BME280;5455;53.224;6.000;2023-03-04T08:16:14;102530.88;;;6.50;100.00
10806;BME280;5455;53.224;6.000;2023-03-04T08:18:46;102533.34;;;6.51;100.00
10806;BME280;5455;53.224;6.000;2023-03-04T08:21:15;102531.94;;;6.54;100.00
10806;BME280;5455;53.224;6.000;2023-03-04T08:23:45;102525.88;;;6.57;100.00
10806;BME280;5455;53.224;6.000;2023-03-04T08:26:19;102529.66;;;6.61;100.00
10806;BME280;5455;53.224;6.000;2023-03-04T08:28:46;102518.34;;;6.68;100.00
10806;BME280;5455;53.224;6.000;2023-03-04T08:31:16;102530.13;;;6.68;100.00
10806;BME280;5455;53.224;6.000;2023-03-04T08:33:44;102535.28;;;6.75;100.00
10806;BME280;5455;53.224;6.000;2023-03-04T08:36:12;102520.09;;;6.82;100.00
10806;BME280;5455;53.224;6.000;2023-03-04T08:38:39;102518.63;;;6.90;100.00
10806;BME280;5455;53.224;6.000;2023-03-04T08:41:06;102531.25;;;6.91;100.00
10806;BME280;5455;53.224;6.000;2023-03-04T08:43:33;102525.00;;;6.85;100.00
10806;BME280;5455;53.224;6.000;2023-03-04T08:46:00;102525.00;;;6.85;100.00
10806;BME280;5455;53.224;6.000;2023-03-04T08:48:28;102535.09;;;6.90;100.00
10806;BME280;5455;53.224;6.000;2023-03-04T08:50:55;102522.47;;;6.89;100.00
10806;BME280;5455;53.224;6.000;2023-03-04T08:53:23;102529.63;;;6.90;100.00
10806;BME280;5455;53.224;6.000;2023-03-04T08:55:51;102536.44;;;6.92;100.00
10806;BME280;5455;53.224;6.000;2023-03-04T08:58:19;102529.63;;;6.90;100.00
10806;BME280;5455;53.224;6.000;2023-03-04T09:00:48;102531.53;;;6.89;100.00
10806;BME280;5455;53.224;6.000;2023-03-04T09:03:17;102532.34;;;6.90;100.00
10806;BME280;5455;53.224;6.000;2023-03-04T09:05:46;102533.41;;;6.94;100.00
10806;BME280;5455;53.224;6.000;2023-03-04T09:08:15;102529.25;;;6.96;100.00
10806;BME280;5455;53.224;6.000;2023-03-04T09:10:43;102526.03;;;6.89;100.00
10806;BME280;5455;53.224;6.000;2023-03-04T09:13:11;102535.34;;;6.93;100.00
10806;BME280;5455;53.224;6.000;2023-03-04T09:15:45;102540.16;;;7.01;100.00
10806;BME280;5455;53.224;6.000;2023-03-04T09:18:13;102541.72;;;7.07;100.00
10806;BME280;5455;53.224;6.000;2023-03-04T09:20:40;102528.84;;;7.08;100.00
10806;BME280;5455;53.224;6.000;2023-03-04T09:23:07;102552.81;;;6.97;100.00
10806;BME280;5455;53.224;6.000;2023-03-04T09:25:36;102554.22;;;6.95;100.00
10806;BME280;5455;53.224;6.000;2023-03-04T09:28:05;102552.22;;;7.00;100.00
10806;BME280;5455;53.224;6.000;2023-03-04T09:30:33;102554.53;;;7.12;100.00
10806;BME280;5455;53.224;6.000;2023-03-04T09:33:00;102545.72;;;7.15;100.00
10806;BME280;5455;53.224;6.000;2023-03-04T09:35:27;102549.28;;;7.15;100.00
10806;BME280;5455;53.224;6.000;2023-03-04T09:37:56;102553.69;;;7.16;100.00
10806;BME280;5455;53.224;6.000;2023-03-04T09:40:27;102552.03;;;7.15;100.00
10806;BME280;5455;53.224;6.000;2023-03-04T09:42:59;102558.25;;;7.21;100.00
10806;BME280;5455;53.224;6.000;2023-03-04T09:45:34;102556.09;;;7.18;100.00
10806;BME280;5455;53.224;6.000;2023-03-04T09:48:02;102544.53;;;7.21;100.00
10806;BME280;5455;53.224;6.000;2023-03-04T09:50:33;102549.00;;;7.17;100.00
10806;BME280;5455;53.224;6.000;2023-03-04T09:53:20;102549.16;;;7.26;100.00
10806;BME280;5455;53.224;6.000;2023-03-04T09:55:50;102555.91;;;7.33;100.00
10806;BME280;5455;53.224;6.000;2023-03-04T09:58:34;102552.19;;;7.24;100.00
10806;BME280;5455;53.224;6.000;2023-03-04T10:04:00;102545.59;;;7.25;100.00
10806;BME280;5455;53.224;6.000;2023-03-04T10:06:27;102547.53;;;7.25;100.00
10806;BME280;5455;53.224;6.000;2023-03-04T10:11:31;102546.34;;;7.31;100.00
10806;BME280;5455;53.224;6.000;2023-03-04T10:16:51;102543.00;;;7.34;100.00
10806;BME280;5455;53.224;6.000;2023-03-04T10:20:11;102546.50;;;7.58;100.00
10806;BME280;5455;53.224;6.000;2023-03-04T10:24:47;102541.97;;;7.48;100.00
10806;BME280;5455;53.224;6.000;2023-03-04T10:27:16;102542.00;;;7.30;100.00
10806;BME280;5455;53.224;6.000;2023-03-04T10:29:45;102554.28;;;7.32;100.00
10806;BME280;5455;53.224;6.000;2023-03-04T10:32:19;102554.13;;;7.42;100.00
10806;BME280;5455;53.224;6.000;2023-03-04T10:34:46;102557.91;;;7.09;100.00
10806;BME280;5455;53.224;6.000;2023-03-04T10:37:13;102560.84;;;7.12;100.00
10806;BME280;5455;53.224;6.000;2023-03-04T10:39:45;102555.31;;;7.17;100.00
10806;BME280;5455;53.224;6.000;2023-03-04T10:44:51;102544.91;;;7.57;100.00
10806;BME280;5455;53.224;6.000;2023-03-04T10:47:18;102548.78;;;7.69;100.00
10806;BME280;5455;53.224;6.000;2023-03-04T10:49:51;102544.03;;;7.94;100.00
10806;BME280;5455;53.224;6.000;2023-03-04T10:55:02;102550.31;;;8.13;100.00
10806;BME280;5455;53.224;6.000;2023-03-04T10:57:40;102547.91;;;7.93;100.00
10806;BME280;5455;53.224;6.000;2023-03-04T11:00:44;102541.13;;;7.85;100.00
10806;BME280;5455;53.224;6.000;2023-03-04T11:06:19;102530.63;;;7.73;100.00
10806;BME280;5455;53.224;6.000;2023-03-04T11:08:57;102535.53;;;7.76;100.00
10806;BME280;5455;53.224;6.000;2023-03-04T11:11:37;102536.91;;;7.93;100.00
10806;BME280;5455;53.224;6.000;2023-03-04T11:17:13;102536.84;;;7.79;100.00
10806;BME280;5455;53.224;6.000;2023-03-04T11:19:44;102529.56;;;7.69;100.00
10806;BME280;5455;53.224;6.000;2023-03-04T11:22:19;102536.13;;;7.55;100.00
10806;BME280;5455;53.224;6.000;2023-03-04T11:24:57;102523.94;;;7.80;100.00
10806;BME280;5455;53.224;6.000;2023-03-04T11:27:49;102523.44;;;8.10;100.00
10806;BME280;5455;53.224;6.000;2023-03-04T11:30:34;102522.16;;;8.02;100.00
10806;BME280;5455;53.224;6.000;2023-03-04T11:33:12;102523.13;;;7.79;100.00
10806;BME280;5455;53.224;6.000;2023-03-04T11:38:28;102537.53;;;7.52;100.00
10806;BME280;5455;53.224;6.000;2023-03-04T11:41:03;102538.56;;;7.38;100.00
10806;BME280;5455;53.224;6.000;2023-03-04T11:43:36;102530.19;;;7.29;100.00
10806;BME280;5455;53.224;6.000;2023-03-04T11:51:43;102522.38;;;7.73;100.00
10806;BME280;5455;53.224;6.000;2023-03-04T11:56:47;102508.16;;;7.53;100.00
10806;BME280;5455;53.224;6.000;2023-03-04T12:02:23;102521.00;;;8.54;100.00
10806;BME280;5455;53.224;6.000;2023-03-04T12:13:12;102513.53;;;8.09;100.00
10806;BME280;5455;53.224;6.000;2023-03-04T12:31:45;102496.66;;;8.61;92.80
10806;BME280;5455;53.224;6.000;2023-03-04T12:37:23;102497.53;;;7.97;95.49
10806;BME280;5455;53.224;6.000;2023-03-04T12:40:37;102496.75;;;7.78;98.37
10806;BME280;5455;53.224;6.000;2023-03-04T12:43:07;102503.66;;;7.75;100.00
10806;BME280;5455;53.224;6.000;2023-03-04T12:45:56;102490.41;;;7.45;100.00
10806;BME280;5455;53.224;6.000;2023-03-04T12:51:34;102490.84;;;7.71;100.00
10806;BME280;5455;53.224;6.000;2023-03-04T12:56:57;102476.41;;;8.11;100.00
10806;BME280;5455;53.224;6.000;2023-03-04T12:59:28;102489.38;;;8.24;100.00
10806;BME280;5455;53.224;6.000;2023-03-04T13:10:35;102470.09;;;7.65;96.22
10806;BME280;5455;53.224;6.000;2023-03-04T13:13:02;102485.00;;;7.59;97.68
10806;BME280;5455;53.224;6.000;2023-03-04T13:15:33;102474.88;;;7.41;98.71
10806;BME280;5455;53.224;6.000;2023-03-04T13:23:21;102464.28;;;6.97;100.00
10806;BME280;5455;53.224;6.000;2023-03-04T13:28:27;102466.75;;;7.68;100.00
10806;BME280;5455;53.224;6.000;2023-03-04T13:43:54;102457.59;;;8.05;100.00
10806;BME280;5455;53.224;6.000;2023-03-04T14:01:34;102445.16;;;7.94;100.00
10806;BME280;5455;53.224;6.000;2023-03-04T14:04:23;102442.53;;;7.70;100.00
10806;BME280;5455;53.224;6.000;2023-03-04T14:06:54;102439.34;;;7.12;100.00
10806;BME280;5455;53.224;6.000;2023-03-04T14:09:32;102425.78;;;6.83;100.00
10806;BME280;5455;53.224;6.000;2023-03-04T14:12:02;102430.00;;;6.76;100.00
10806;BME280;5455;53.224;6.000;2023-03-04T14:14:44;102442.47;;;6.87;100.00
10806;BME280;5455;53.224;6.000;2023-03-04T14:17:23;102433.81;;;7.17;100.00
10806;BME280;5455;53.224;6.000;2023-03-04T14:19:51;102437.19;;;7.28;100.00
10806;BME280;5455;53.224;6.000;2023-03-04T14:22:24;102434.66;;;7.31;100.00
10806;BME280;5455;53.224;6.000;2023-03-04T14:25:21;102421.63;;;7.42;100.00
10806;BME280;5455;53.224;6.000;2023-03-04T14:27:46;102441.19;;;7.35;100.00
10806;BME280;5455;53.224;6.000;2023-03-04T14:30:25;102436.53;;;6.98;100.00
10806;BME280;5455;53.224;6.000;2023-03-04T14:33:20;102439.34;;;6.75;100.00
10806;BME280;5455;53.224;6.000;2023-03-04T14:35:50;102434.13;;;6.54;100.00
10806;BME280;5455;53.224;6.000;2023-03-04T14:38:27;102433.13;;;6.45;100.00
10806;BME280;5455;53.224;6.000;2023-03-04T14:41:05;102436.56;;;6.56;100.00
10806;BME280;5455;53.224;6.000;2023-03-04T14:43:40;102438.44;;;6.60;100.00
10806;BME280;5455;53.224;6.000;2023-03-04T14:46:14;102424.66;;;6.65;100.00
10806;BME280;5455;53.224;6.000;2023-03-04T14:48:48;102415.91;;;6.82;100.00
10806;BME280;5455;53.224;6.000;2023-03-04T14:51:28;102421.84;;;6.89;100.00
10806;BME280;5455;53.224;6.000;2023-03-04T14:53:55;102419.03;;;6.94;100.00
10806;BME280;5455;53.224;6.000;2023-03-04T14:56:30;102418.16;;;6.99;100.00
10806;BME280;5455;53.224;6.000;2023-03-04T14:58:58;102410.31;;;7.11;100.00
10806;BME280;5455;53.224;6.000;2023-03-04T15:01:32;102419.34;;;7.11;100.00
10806;BME280;5455;53.224;6.000;2023-03-04T15:04:06;102411.25;;;7.20;100.00
10806;BME280;5455;53.224;6.000;2023-03-04T15:06:36;102414.47;;;7.08;100.00
10806;BME280;5455;53.224;6.000;2023-03-04T15:09:07;102416.00;;;6.96;100.00
10806;BME280;5455;53.224;6.000;2023-03-04T15:11:46;102408.38;;;6.93;100.00
10806;BME280;5455;53.224;6.000;2023-03-04T15:17:26;102402.00;;;6.79;100.00